| time (UTC) | temp C | wind direction | speed KPH | gust KPH | rain 1hr cm | rain 24hr cm | rain mn cm | humidity % | barometer mb |
| 20260906220048 | 34 | 250 | 32.2 | 48.3 | 0.00 | 0.00 | 0.00 | 12 | 1000.8 |
| 20260906214524 | 34 | 240 | 20.9 | 49.9 | 0.00 | 0.00 | 0.00 | 12 | 1001.0 |
| 20260906213024 | 34 | 305 | 27.4 | 45.1 | 0.00 | 0.00 | 0.00 | 12 | 1001.2 |
| 20260906211527 | 33 | 257 | 17.7 | 48.3 | 0.00 | 0.00 | 0.00 | 13 | 1001.5 |
| 20260906210019 | 33 | 253 | 17.7 | 35.4 | 0.00 | 0.00 | 0.00 | 15 | 1001.6 |
| 20260906204511 | 33 | 208 | 9.7 | 25.7 | 0.00 | 0.00 | 0.00 | 19 | 1001.7 |
| 20260906203008 | 33 | 234 | 24.1 | 46.7 | 0.00 | 0.00 | 0.00 | 19 | 1002.1 |
| 20260906201536 | 32 | 215 | 6.4 | 33.8 | 0.00 | 0.00 | 0.00 | 19 | 1002.2 |
| 20260906200045 | 32 | 229 | 11.3 | 35.4 | 0.00 | 0.00 | 0.00 | 22 | 1002.6 |
| 20260906194530 | 32 | 196 | 24.1 | 35.4 | 0.00 | 0.00 | 0.00 | 21 | 1002.7 |
| 20260906193029 | 32 | 221 | 25.7 | 33.8 | 0.00 | 0.00 | 0.00 | 21 | 1003.0 |
| 20260906191525 | 32 | 201 | 20.9 | 38.6 | 0.00 | 0.00 | 0.00 | 22 | 1003.4 |
| 20260906190021 | 31 | 264 | 17.7 | 32.2 | 0.00 | 0.00 | 0.00 | 23 | 1003.6 |
| 20260906184515 | 30 | 248 | 8.0 | 20.9 | 0.00 | 0.00 | 0.00 | 25 | 1003.9 |
| 20260906183027 | 30 | 224 | 22.5 | 35.4 | 0.00 | 0.00 | 0.00 | 24 | 1004.1 |
| 20260906181611 | 30 | 238 | 14.5 | 29.0 | 0.00 | 0.00 | 0.00 | 27 | 1004.3 |
| 20260906180006 | 29 | 255 | 11.3 | 25.7 | 0.00 | 0.00 | 0.00 | 29 | 1004.6 |
| 20260906174539 | 28 | 233 | 11.3 | 24.1 | 0.00 | 0.00 | 0.00 | 31 | 1004.9 |
| 20260906173031 | 28 | 246 | 17.7 | 32.2 | 0.00 | 0.00 | 0.00 | 32 | 1005.2 |
| 20260906171524 | 27 | 293 | 4.8 | 20.9 | 0.00 | 0.00 | 0.00 | 36 | 1005.4 |
| 20260906170020 | 27 | 250 | 11.3 | 24.1 | 0.00 | 0.00 | 0.00 | 39 | 1005.6 |
| 20260906164535 | 26 | 246 | 8.0 | 16.1 | 0.00 | 0.00 | 0.00 | 41 | 1005.8 |
| 20260906163025 | 26 | 28 | 6.4 | 16.1 | 0.00 | 0.00 | 0.00 | 41 | 1006.0 |
| 20260906161543 | 25 | 333 | 6.4 | 20.9 | 0.00 | 0.00 | 0.00 | 45 | 1006.0 |
| 20260906160049 | 25 | 218 | 8.0 | 14.5 | 0.00 | 0.00 | 0.00 | 50 | 1006.1 |
| 20260906154535 | 24 | 207 | 11.3 | 20.9 | 0.00 | 0.00 | 0.00 | 51 | 1006.1 |
| 20260906153034 | 23 | 216 | 14.5 | 25.7 | 0.00 | 0.00 | 0.00 | 55 | 1006.2 |
| 20260906151526 | 22 | 217 | 12.9 | 20.9 | 0.00 | 0.00 | 0.00 | 60 | 1006.3 |
| 20260906150043 | 22 | 219 | 14.5 | 22.5 | 0.00 | 0.00 | 0.00 | 60 | 1006.4 |
| 20260906144532 | 21 | 226 | 12.9 | 17.7 | 0.00 | 0.00 | 0.00 | 65 | 1006.2 |
| 20260906143025 | 20 | 226 | 14.5 | 22.5 | 0.00 | 0.00 | 0.00 | 66 | 1006.2 |
| 20260906141532 | 20 | 210 | 17.7 | 24.1 | 0.00 | 0.00 | 0.00 | 68 | 1006.1 |
| 20260906140021 | 19 | 224 | 17.7 | 25.7 | 0.00 | 0.00 | 0.00 | 70 | 1006.0 |
| 20260906134512 | 18 | 224 | 14.5 | 24.1 | 0.00 | 0.00 | 0.00 | 71 | 1006.2 |
| 20260906133012 | 17 | 222 | 9.7 | 14.5 | 0.00 | 0.00 | 0.00 | 73 | 1006.1 |
| 20260906131523 | 17 | 219 | 11.3 | 17.7 | 0.00 | 0.00 | 0.00 | 74 | 1006.1 |
| 20260906130013 | 17 | 223 | 14.5 | 20.9 | 0.00 | 0.00 | 0.00 | 73 | 1005.9 |
| 20260906124505 | 17 | 208 | 12.9 | 17.7 | 0.00 | 0.00 | 0.00 | 74 | 1006.0 |
| 20260906123007 | 17 | 214 | 14.5 | 20.9 | 0.00 | 0.00 | 0.00 | 72 | 1006.0 |
| 20260906121504 | 18 | 201 | 17.7 | 24.1 | 0.00 | 0.00 | 0.00 | 72 | 1005.9 |
| 20260906120002 | 17 | 218 | 12.9 | 16.1 | 0.00 | 0.00 | 0.00 | 72 | 1006.0 |
| 20260906114601 | 18 | 217 | 8.0 | 14.5 | 0.00 | 0.00 | 0.00 | 73 | 1006.1 |
| 20260906113104 | 17 | 212 | 4.8 | 8.0 | 0.00 | 0.00 | 0.00 | 72 | 1006.2 |
| 20260906111556 | 17 | 206 | 6.4 | 11.3 | 0.00 | 0.00 | 0.00 | 71 | 1006.4 |
| 20260906110056 | 17 | 223 | 6.4 | 14.5 | 0.00 | 0.00 | 0.00 | 70 | 1006.1 |
| 20260906104605 | 17 | 220 | 9.7 | 14.5 | 0.00 | 0.00 | 0.00 | 69 | 1006.0 |
| 20260906103049 | 18 | 218 | 9.7 | 17.7 | 0.00 | 0.00 | 0.00 | 68 | 1006.0 |
| 20260906101545 | 17 | 196 | 9.7 | 14.5 | 0.00 | 0.00 | 0.00 | 67 | 1005.9 |
| 20260906100045 | 18 | 220 | 8.0 | 16.1 | 0.00 | 0.00 | 0.00 | 63 | 1006.0 |
| 20260906094602 | 18 | 194 | 9.7 | 14.5 | 0.00 | 0.00 | 0.00 | 61 | 1005.8 |
| 20260906093038 | 18 | 185 | 11.3 | 16.1 | 0.00 | 0.00 | 0.00 | 58 | 1005.9 |
| 20260906091541 | 18 | 190 | 1.6 | 4.8 | 0.00 | 0.00 | 0.00 | 55 | 1005.6 |
| 20260906090033 | 18 | 178 | 1.6 | 3.2 | 0.00 | 0.00 | 0.00 | 54 | 1005.8 |
| 20260906084536 | 18 | 178 | 0.0 | 3.2 | 0.00 | 0.00 | 0.00 | 53 | 1005.7 |
| 20260906083033 | 18 | 324 | 1.6 | 4.8 | 0.00 | 0.00 | 0.00 | 53 | 1005.7 |
| 20260906081540 | 18 | 76 | 3.2 | 6.4 | 0.00 | 0.00 | 0.00 | 51 | 1005.9 |
| 20260906080022 | 19 | 324 | 3.2 | 4.8 | 0.00 | 0.00 | 0.00 | 49 | 1005.8 |
| 20260906074519 | 20 | 102 | 0.0 | 3.2 | 0.00 | 0.00 | 0.00 | 47 | 1005.7 |
| 20260906073013 | 20 | 231 | 3.2 | 6.4 | 0.00 | 0.00 | 0.00 | 48 | 1006.1 |
| 20260906071512 | 20 | 197 | 6.4 | 12.9 | 0.00 | 0.00 | 0.00 | 48 | 1006.0 |
| 20260906070011 | 20 | 201 | 1.6 | 4.8 | 0.00 | 0.00 | 0.00 | 46 | 1005.8 |
| 20260906064509 | 20 | 39 | 1.6 | 6.4 | 0.00 | 0.00 | 0.00 | 44 | 1006.1 |
| 20260906063008 | 20 | 223 | 3.2 | 6.4 | 0.00 | 0.00 | 0.00 | 44 | 1006.3 |
| 20260906061507 | 20 | 277 | 1.6 | 6.4 | 0.00 | 0.00 | 0.00 | 43 | 1006.4 |
| 20260906060005 | 21 | 163 | 1.6 | 4.8 | 0.00 | 0.00 | 0.00 | 44 | 1006.3 |
| 20260906054504 | 21 | 210 | 0.0 | 6.4 | 0.00 | 0.00 | 0.00 | 44 | 1006.4 |
| 20260906053002 | 21 | 110 | 4.8 | 8.0 | 0.00 | 0.00 | 0.00 | 44 | 1006.4 |
| 20260906051601 | 21 | 82 | 8.0 | 9.7 | 0.00 | 0.00 | 0.00 | 43 | 1006.4 |
| 20260906050125 | 21 | 28 | 1.6 | 4.8 | 0.00 | 0.00 | 0.00 | 42 | 1006.4 |
| 20260906044558 | 22 | 245 | 3.2 | 8.0 | 0.00 | 0.00 | 0.00 | 41 | 1006.6 |
| 20260906043039 | 22 | 89 | 1.6 | 6.4 | 0.00 | 0.00 | 0.00 | 40 | 1006.4 |
| 20260906041525 | 22 | 269 | 1.6 | 6.4 | 0.00 | 0.00 | 0.00 | 39 | 1006.5 |
| 20260906040027 | 23 | 105 | 8.0 | 14.5 | 0.00 | 0.00 | 0.00 | 39 | 1006.3 |
| 20260906034521 | 23 | 103 | 8.0 | 12.9 | 0.00 | 0.00 | 0.00 | 38 | 1006.3 |
| 20260906033020 | 23 | 96 | 8.0 | 12.9 | 0.00 | 0.00 | 0.00 | 37 | 1006.3 |
| 20260906031534 | 23 | 88 | 9.7 | 16.1 | 0.00 | 0.00 | 0.00 | 35 | 1006.1 |
| 20260906030017 | 24 | 77 | 12.9 | 22.5 | 0.00 | 0.00 | 0.00 | 34 | 1005.8 |
| 20260906024515 | 25 | 82 | 12.9 | 19.3 | 0.00 | 0.00 | 0.00 | 32 | 1005.7 |
| 20260906023019 | 25 | 83 | 12.9 | 19.3 | 0.00 | 0.00 | 0.00 | 29 | 1005.5 |
| 20260906021515 | 25 | 77 | 12.9 | 17.7 | 0.00 | 0.00 | 0.00 | 28 | 1005.3 |
| 20260906020012 | 26 | 88 | 11.3 | 19.3 | 0.00 | 0.00 | 0.00 | 26 | 1005.2 |
| 20260906014512 | 26 | 79 | 12.9 | 17.7 | 0.00 | 0.00 | 0.00 | 25 | 1004.9 |
| 20260906013010 | 27 | 79 | 9.7 | 19.3 | 0.00 | 0.00 | 0.00 | 24 | 1004.8 |
| 20260906011513 | 28 | 72 | 11.3 | 17.7 | 0.00 | 0.00 | 0.00 | 23 | 1004.7 |
| 20260906010007 | 29 | 84 | 16.1 | 22.5 | 0.00 | 0.00 | 0.00 | 21 | 1004.7 |
| 20260906004507 | 30 | 88 | 17.7 | 27.4 | 0.00 | 0.00 | 0.00 | 21 | 1004.8 |
| 20260906003011 | 30 | 76 | 16.1 | 24.1 | 0.00 | 0.00 | 0.00 | 20 | 1004.6 |
| 20260906001506 | 30 | 89 | 16.1 | 29.0 | 0.00 | 0.00 | 0.00 | 20 | 1004.6 |
| 20260906000004 | 31 | 98 | 16.1 | 24.1 | 0.00 | 0.00 | 0.00 | 20 | 1004.4 |
| 20260905234507 | 31 | 86 | 25.7 | 33.8 | 0.00 | 0.00 | 0.00 | 20 | 1004.2 |
| 20260905233002 | 31 | 65 | 14.5 | 20.9 | 0.00 | 0.00 | 0.00 | 19 | 1004.3 |
| 20260905231500 | 31 | 68 | 8.0 | 17.7 | 0.00 | 0.00 | 0.00 | 19 | 1004.1 |
| 20260905230059 | 31 | 115 | 8.0 | 19.3 | 0.00 | 0.00 | 0.00 | 19 | 1004.2 |
| 20260905224607 | 31 | 102 | 14.5 | 22.5 | 0.00 | 0.00 | 0.00 | 19 | 1004.3 |
| 20260905223057 | 31 | 52 | 9.7 | 16.1 | 0.00 | 0.00 | 0.00 | 19 | 1004.4 |
| 20260905221600 | 31 | 63 | 3.2 | 14.5 | 0.00 | 0.00 | 0.00 | 20 | 1004.4 |